Time;durP1;ratioP1;P1;durP2;ratioP2;P2;SDS_P1;SDS_P2;PMS_P1;PMS_P2;Temp;Humidity;BMP_temperature;BMP_pressure;BME280_temperature;BME280_humidity;BME280_pressure;Samples;Min_cycle;Max_cycle;Signal;HPM_P1;HPM_P2
2021/06/18 00:01:31;;;;;;;13.43;12.23;;;24.40;99.90;;;;;;5071089;28;20457;-83
2021/06/18 00:03:58;;;;;;;14.23;12.93;;;24.40;99.90;;;;;;5069943;28;20445;-84
2021/06/18 00:06:24;;;;;;;13.00;12.00;;;24.40;99.90;;;;;;5061102;28;20461;-84
2021/06/18 00:08:52;;;;;;;12.43;11.33;;;24.40;99.90;;;;;;5065145;28;20543;-83
2021/06/18 00:11:19;;;;;;;14.03;12.70;;;24.30;99.90;;;;;;5070630;28;20445;-83
2021/06/18 00:13:45;;;;;;;14.77;13.37;;;24.30;99.90;;;;;;5061152;28;20456;-84
2021/06/18 00:16:12;;;;;;;13.43;12.03;;;24.30;99.90;;;;;;5062253;28;20446;-84
2021/06/18 00:18:40;;;;;;;12.83;11.07;;;24.30;99.90;;;;;;5063171;28;20489;-84
2021/06/18 00:21:07;;;;;;;12.27;11.13;;;24.30;99.90;;;;;;5067021;28;20461;-83
2021/06/18 00:23:33;;;;;;;12.53;11.57;;;24.20;99.90;;;;;;5074248;28;20457;-84
2021/06/18 00:26:01;;;;;;;12.97;11.70;;;24.20;99.90;;;;;;5068547;28;20457;-83
2021/06/18 00:28:28;;;;;;;12.70;11.60;;;24.10;99.90;;;;;;5074242;28;20545;-83
2021/06/18 00:30:55;;;;;;;17.77;12.23;;;24.10;99.90;;;;;;5076205;28;20505;-83
2021/06/18 00:33:21;;;;;;;12.43;11.17;;;24.10;99.90;;;;;;5077359;28;20440;-83
2021/06/18 00:35:48;;;;;;;12.23;11.13;;;24.00;99.90;;;;;;5074858;28;20465;-84
2021/06/18 00:38:15;;;;;;;12.50;11.53;;;24.00;99.90;;;;;;5061016;28;20465;-83
2021/06/18 00:40:41;;;;;;;11.63;10.67;;;23.90;99.90;;;;;;5061216;28;20974;-83
2021/06/18 00:43:09;;;;;;;11.67;10.70;;;23.90;99.90;;;;;;5061792;28;20446;-84
2021/06/18 00:45:36;;;;;;;12.67;11.50;;;23.80;99.90;;;;;;5060203;28;20599;-84
2021/06/18 00:48:02;;;;;;;12.97;11.80;;;23.80;99.90;;;;;;5059570;28;20453;-85
2021/06/18 00:50:30;;;;;;;16.53;12.77;;;23.80;99.90;;;;;;5058791;28;20468;-84
2021/06/18 00:52:57;;;;;;;13.10;11.73;;;23.70;99.90;;;;;;5059636;28;20472;-84
2021/06/18 00:55:24;;;;;;;12.73;11.53;;;23.70;99.90;;;;;;5058851;28;20510;-84
2021/06/18 00:57:51;;;;;;;14.17;12.97;;;23.70;99.90;;;;;;5058232;28;20457;-84
2021/06/18 01:00:21;;;;;;;13.23;12.13;;;23.70;99.90;;;;;;5057574;28;20544;-84
2021/06/18 01:02:48;;;;;;;14.33;12.40;;;23.60;99.90;;;;;;5058245;28;20446;-84
2021/06/18 01:05:18;;;;;;;13.00;11.80;;;23.60;99.90;;;;;;5058511;28;20442;-84
2021/06/18 01:07:52;;;;;;;13.07;11.80;;;23.50;99.90;;;;;;5058262;28;20514;-84
2021/06/18 01:10:26;;;;;;;13.77;12.47;;;23.50;99.90;;;;;;5058550;28;20893;-84
2021/06/18 01:13:05;;;;;;;12.83;11.73;;;23.50;99.90;;;;;;5058414;28;20432;-84
2021/06/18 01:15:40;;;;;;;13.17;11.93;;;23.40;99.90;;;;;;5058959;28;20796;-84
2021/06/18 01:18:13;;;;;;;12.97;11.97;;;23.40;99.90;;;;;;5058699;28;20430;-84
2021/06/18 01:21:00;;;;;;;13.83;12.67;;;23.40;99.90;;;;;;5057839;28;20484;-84
2021/06/18 01:23:45;;;;;;;14.60;13.43;;;23.40;99.90;;;;;;5058847;28;20436;-84
2021/06/18 01:26:31;;;;;;;13.40;12.30;;;23.40;99.90;;;;;;5061043;28;20436;-84
2021/06/18 01:29:01;;;;;;;14.47;13.30;;;23.40;99.90;;;;;;5059154;28;20515;-83
2021/06/18 01:31:29;;;;;;;13.70;12.50;;;23.40;99.90;;;;;;5058800;28;20517;-84
2021/06/18 01:34:00;;;;;;;12.97;11.93;;;23.30;99.90;;;;;;5057973;28;20493;-84
2021/06/18 01:36:29;;;;;;;14.67;13.27;;;23.10;99.90;;;;;;5058201;28;20428;-83
2021/06/18 01:38:58;;;;;;;15.60;14.17;;;23.00;99.90;;;;;;5058781;28;20472;-84
2021/06/18 01:41:29;;;;;;;13.70;12.60;;;23.00;99.90;;;;;;5058994;28;20826;-84
2021/06/18 01:43:58;;;;;;;14.17;12.97;;;23.00;99.90;;;;;;5057837;28;20442;-84
2021/06/18 01:46:30;;;;;;;13.10;11.93;;;23.10;99.90;;;;;;5057360;28;20460;-84
2021/06/18 01:48:59;;;;;;;14.03;12.50;;;23.10;99.90;;;;;;5059108;28;20476;-84
2021/06/18 01:51:28;;;;;;;16.70;15.07;;;22.90;99.90;;;;;;5057957;28;20452;-84
2021/06/18 01:53:57;;;;;;;13.77;12.47;;;22.80;99.90;;;;;;5058926;28;20447;-84
2021/06/18 01:56:25;;;;;;;13.87;12.67;;;22.70;99.90;;;;;;5058247;28;20452;-84
2021/06/18 01:58:55;;;;;;;13.83;12.43;;;22.70;99.90;;;;;;5057816;28;20868;-84
2021/06/18 02:01:23;;;;;;;14.77;13.27;;;22.70;99.90;;;;;;5059296;28;20598;-84
2021/06/18 02:03:52;;;;;;;13.43;12.23;;;22.60;99.90;;;;;;5062320;28;20464;-84
2021/06/18 02:06:22;;;;;;;16.30;14.37;;;22.50;99.90;;;;;;5071081;28;20452;-84
2021/06/18 02:08:54;;;;;;;14.33;13.03;;;22.50;99.90;;;;;;5062911;28;21063;-84
2021/06/18 02:11:25;;;;;;;14.80;13.40;;;22.50;99.90;;;;;;5060466;28;20480;-84
2021/06/18 02:13:53;;;;;;;14.90;13.60;;;22.40;99.90;;;;;;5062761;28;20493;-84
2021/06/18 02:16:21;;;;;;;14.57;13.20;;;22.40;99.90;;;;;;5059725;28;20544;-84
2021/06/18 02:18:48;;;;;;;15.83;14.17;;;22.40;99.90;;;;;;5062455;28;20458;-84
2021/06/18 02:21:18;;;;;;;15.17;13.57;;;22.40;99.90;;;;;;5060025;28;21030;-84
2021/06/18 02:23:45;;;;;;;15.37;14.07;;;22.40;99.90;;;;;;5060095;28;20459;-84
2021/06/18 02:26:12;;;;;;;14.77;13.47;;;22.40;99.90;;;;;;5059273;28;20502;-84
2021/06/18 02:28:39;;;;;;;15.07;13.87;;;22.30;99.90;;;;;;5059129;28;20990;-84
2021/06/18 02:31:07;;;;;;;14.33;13.03;;;22.20;99.90;;;;;;5066131;28;20438;-84
2021/06/18 02:33:33;;;;;;;14.40;13.10;;;22.20;99.90;;;;;;5067771;28;20443;-84
2021/06/18 02:36:01;;;;;;;15.93;14.40;;;22.20;99.90;;;;;;5067552;28;20815;-82
2021/06/18 02:38:29;;;;;;;17.60;13.37;;;22.30;99.90;;;;;;5063894;28;20542;-85
2021/06/18 02:40:56;;;;;;;15.00;13.47;;;22.20;99.90;;;;;;5066755;28;20507;-85
2021/06/18 02:43:22;;;;;;;14.30;13.17;;;22.20;99.90;;;;;;5064678;28;20549;-85
2021/06/18 02:45:49;;;;;;;16.20;14.57;;;22.20;99.90;;;;;;5061987;28;20450;-85
2021/06/18 02:48:18;;;;;;;16.27;14.60;;;22.10;99.90;;;;;;5064623;28;20442;-85
2021/06/18 02:50:50;;;;;;;16.97;15.43;;;22.00;99.90;;;;;;5065414;28;20446;-84
2021/06/18 02:53:24;;;;;;;15.57;14.37;;;21.90;99.90;;;;;;5077857;28;20410;-84
2021/06/18 02:55:56;;;;;;;14.73;13.47;;;21.90;99.90;;;;;;5070645;28;20494;-85
2021/06/18 02:58:26;;;;;;;16.57;15.07;;;21.90;99.90;;;;;;5062477;28;20437;-84
2021/06/18 03:00:54;;;;;;;16.50;14.90;;;21.80;99.90;;;;;;5060909;28;20508;-84
2021/06/18 03:03:23;;;;;;;16.73;15.27;;;21.80;99.90;;;;;;5064251;28;20484;-84
2021/06/18 03:05:52;;;;;;;16.70;15.20;;;21.90;99.90;;;;;;5064989;28;20789;-84
2021/06/18 03:08:21;;;;;;;16.70;14.37;;;21.90;99.90;;;;;;5060451;28;20447;-85
2021/06/18 03:10:51;;;;;;;16.53;14.73;;;21.90;99.90;;;;;;5061299;28;20438;-85
2021/06/18 03:13:21;;;;;;;15.50;14.17;;;21.80;99.90;;;;;;5060197;28;20456;-84
2021/06/18 03:15:49;;;;;;;17.13;15.00;;;21.70;99.90;;;;;;5060786;28;20418;-85
2021/06/18 03:18:20;;;;;;;16.43;14.70;;;21.70;99.90;;;;;;5074194;28;20507;-84
2021/06/18 03:20:50;;;;;;;15.77;14.37;;;21.60;99.90;;;;;;5067758;28;20474;-85
2021/06/18 03:23:18;;;;;;;16.33;14.73;;;21.60;99.90;;;;;;5060921;28;20453;-84
2021/06/18 03:25:47;;;;;;;15.90;14.27;;;21.70;99.90;;;;;;5060791;28;20441;-84
2021/06/18 03:28:14;;;;;;;16.60;15.03;;;21.70;99.90;;;;;;5060099;28;20446;-85
2021/06/18 03:30:47;;;;;;;14.60;13.40;;;21.60;99.90;;;;;;5059509;28;20466;-84
2021/06/18 03:33:15;;;;;;;15.00;13.50;;;21.70;99.90;;;;;;5059400;28;20790;-85
2021/06/18 03:35:42;;;;;;;15.13;13.83;;;21.80;99.90;;;;;;5059645;28;20487;-84
2021/06/18 03:38:10;;;;;;;16.33;14.87;;;21.80;99.90;;;;;;5058880;28;20975;-84
2021/06/18 03:40:39;;;;;;;15.70;14.30;;;21.80;99.90;;;;;;5075020;28;20477;-84
2021/06/18 03:43:06;;;;;;;17.20;15.73;;;21.80;99.90;;;;;;5076541;28;20505;-83
2021/06/18 03:45:34;;;;;;;17.50;15.13;;;21.90;99.90;;;;;;5079327;28;20473;-85
2021/06/18 03:48:03;;;;;;;15.33;14.23;;;21.90;99.90;;;;;;5077923;28;20449;-84
2021/06/18 03:50:30;;;;;;;16.37;14.87;;;21.90;99.90;;;;;;5077552;28;20999;-83
2021/06/18 03:52:57;;;;;;;15.33;13.83;;;21.90;99.90;;;;;;5072307;28;20507;-85
2021/06/18 03:55:23;;;;;;;15.57;14.30;;;21.90;99.90;;;;;;5066315;28;20450;-85
2021/06/18 03:57:52;;;;;;;15.77;14.47;;;21.90;99.90;;;;;;5063817;28;20478;-85
2021/06/18 04:00:20;;;;;;;17.07;15.30;;;21.90;99.90;;;;;;5060187;28;20522;-84
2021/06/18 04:02:48;;;;;;;14.90;13.70;;;21.90;99.90;;;;;;5057541;28;20451;-84
2021/06/18 04:05:17;;;;;;;15.00;13.70;;;21.90;99.90;;;;;;5056895;28;20511;-84
2021/06/18 04:07:46;;;;;;;15.90;14.13;;;22.00;99.90;;;;;;5060754;28;20438;-84
2021/06/18 04:10:15;;;;;;;16.00;14.60;;;22.00;99.90;;;;;;5098304;22;20553;-82
2021/06/18 04:12:42;;;;;;;15.40;14.10;;;22.10;99.90;;;;;;5080638;28;20957;-82
2021/06/18 04:15:10;;;;;;;15.20;13.63;;;22.10;99.90;;;;;;5080695;28;20496;-80
2021/06/18 04:17:39;;;;;;;24.03;14.33;;;22.20;99.90;;;;;;5084599;28;20434;-81
2021/06/18 04:20:07;;;;;;;14.30;12.90;;;22.30;99.90;;;;;;5081278;28;20486;-82
2021/06/18 04:22:35;;;;;;;14.97;13.60;;;22.30;99.90;;;;;;5081071;28;20453;-80
2021/06/18 04:25:03;;;;;;;15.60;14.13;;;22.30;99.90;;;;;;5081424;28;20451;-82
2021/06/18 04:27:30;;;;;;;64.73;19.80;;;22.30;99.90;;;;;;5080478;28;20445;-81
2021/06/18 04:29:57;;;;;;;19.27;14.80;;;22.30;99.90;;;;;;5080155;28;20521;-82
2021/06/18 04:32:24;;;;;;;19.33;14.20;;;22.60;99.90;;;;;;5080380;28;20496;-83
2021/06/18 04:34:50;;;;;;;13.40;12.20;;;22.70;99.90;;;;;;5080705;28;20471;-82
2021/06/18 04:37:17;;;;;;;14.40;13.30;;;22.70;99.90;;;;;;5080265;28;20453;-82
2021/06/18 04:39:45;;;;;;;15.87;14.57;;;22.70;99.90;;;;;;5080195;28;20476;-82
2021/06/18 04:42:12;;;;;;;15.57;14.00;;;22.70;99.90;;;;;;5083064;28;21076;-83
2021/06/18 04:44:39;;;;;;;14.40;12.97;;;22.80;99.90;;;;;;5083372;28;20445;-82
2021/06/18 04:47:06;;;;;;;14.10;12.90;;;22.80;99.90;;;;;;5086002;28;20479;-82
2021/06/18 04:49:33;;;;;;;15.87;13.17;;;22.90;99.90;;;;;;5089106;28;20469;-82
2021/06/18 04:52:00;;;;;;;13.80;12.60;;;22.90;99.90;;;;;;5095635;28;20462;-82
2021/06/18 04:54:27;;;;;;;15.77;14.20;;;23.00;99.90;;;;;;5092401;28;21053;-82
2021/06/18 04:56:56;;;;;;;13.57;12.37;;;23.00;99.90;;;;;;5085553;28;20443;-83
2021/06/18 04:59:23;;;;;;;17.10;12.97;;;23.00;99.90;;;;;;5083059;28;20470;-82
2021/06/18 05:01:49;;;;;;;12.63;11.47;;;23.10;99.90;;;;;;5083586;28;20509;-83
2021/06/18 05:04:16;;;;;;;12.90;11.80;;;23.20;99.90;;;;;;5082318;28;20447;-83
2021/06/18 05:06:43;;;;;;;12.80;11.57;;;23.20;99.90;;;;;;5081315;28;20940;-82
2021/06/18 05:09:09;;;;;;;13.27;12.10;;;23.30;99.90;;;;;;5080646;28;20479;-82
2021/06/18 05:11:36;;;;;;;12.93;11.73;;;23.40;99.90;;;;;;5080826;28;20438;-82
2021/06/18 05:14:04;;;;;;;13.70;12.50;;;23.40;99.90;;;;;;5082589;28;20447;-81
2021/06/18 05:16:30;;;;;;;16.83;11.37;;;23.50;99.90;;;;;;5081762;28;20443;-82
2021/06/18 05:18:57;;;;;;;12.70;11.50;;;23.50;99.90;;;;;;5080956;28;20993;-82
2021/06/18 05:21:24;;;;;;;11.60;10.50;;;23.60;99.90;;;;;;5079874;28;20479;-83
2021/06/18 05:23:50;;;;;;;12.63;11.47;;;23.70;99.90;;;;;;5079106;28;20443;-83
2021/06/18 05:26:17;;;;;;;11.90;11.00;;;23.80;99.90;;;;;;5078380;28;21110;-83
2021/06/18 05:28:43;;;;;;;11.43;10.27;;;23.90;99.90;;;;;;5078198;28;20502;-82
2021/06/18 05:31:13;;;;;;;14.93;12.70;;;24.00;99.90;;;;;;5079496;28;20456;-82
2021/06/18 05:33:39;;;;;;;12.37;11.07;;;24.10;99.90;;;;;;5080351;28;20521;-82
2021/06/18 05:36:06;;;;;;;16.27;12.83;;;24.10;99.90;;;;;;5079428;28;20452;-82
2021/06/18 05:38:33;;;;;;;13.07;11.77;;;24.20;99.90;;;;;;5079556;28;20498;-82
2021/06/18 05:41:00;;;;;;;10.87;9.90;;;24.30;99.90;;;;;;5079786;28;20538;-83
2021/06/18 05:43:26;;;;;;;11.53;10.40;;;24.40;99.90;;;;;;5081974;28;20453;-82
2021/06/18 05:45:53;;;;;;;10.77;9.87;;;24.40;99.90;;;;;;5082072;28;20447;-82
2021/06/18 05:48:21;;;;;;;11.10;10.10;;;24.50;99.90;;;;;;5081429;28;20440;-82
2021/06/18 05:50:48;;;;;;;9.93;8.93;;;24.60;99.90;;;;;;5082032;28;20470;-83
2021/06/18 05:53:14;;;;;;;11.00;9.60;;;24.60;99.90;;;;;;5086435;28;20449;-82
2021/06/18 05:55:41;;;;;;;12.70;11.40;;;24.70;99.90;;;;;;5090590;28;20514;-82
2021/06/18 05:58:07;;;;;;;11.10;10.00;;;24.80;99.90;;;;;;5090849;28;20510;-82
2021/06/18 06:00:34;;;;;;;12.03;10.93;;;24.80;99.90;;;;;;5087841;28;20480;-82
2021/06/18 06:03:01;;;;;;;13.10;11.90;;;24.90;99.90;;;;;;5086808;28;20444;-82
2021/06/18 06:05:37;;;;;;;14.43;13.10;;;25.00;99.90;;;;;;5085572;28;20487;-83
2021/06/18 06:08:08;;;;;;;13.07;12.00;;;25.00;99.90;;;;;;5089474;28;20429;-85
2021/06/18 06:10:35;;;;;;;10.30;9.30;;;25.00;99.90;;;;;;5088699;28;20494;-81
2021/06/18 06:13:02;;;;;;;12.13;11.13;;;25.10;99.90;;;;;;5087290;28;20440;-81
2021/06/18 06:15:28;;;;;;;11.10;9.20;;;25.20;99.90;;;;;;5087158;28;20445;-82
2021/06/18 06:17:55;;;;;;;10.43;8.70;;;25.10;99.90;;;;;;5086121;28;20441;-82
2021/06/18 06:20:22;;;;;;;9.87;7.60;;;25.30;99.90;;;;;;5086796;28;20461;-82
2021/06/18 06:22:52;;;;;;;9.60;8.33;;;25.40;99.90;;;;;;5084324;28;20444;-82
2021/06/18 06:25:18;;;;;;;10.00;7.90;;;25.60;99.90;;;;;;5083319;28;20453;-82
2021/06/18 06:27:45;;;;;;;14.50;12.83;;;25.60;99.90;;;;;;5082414;28;20437;-83
2021/06/18 06:30:13;;;;;;;10.03;9.00;;;25.70;99.90;;;;;;5083139;28;20491;-81
2021/06/18 06:32:40;;;;;;;10.20;8.87;;;25.80;99.90;;;;;;5084128;28;20449;-82
2021/06/18 06:35:07;;;;;;;8.83;7.93;;;25.80;99.90;;;;;;5082243;28;20449;-83
2021/06/18 06:37:34;;;;;;;8.80;7.90;;;25.80;99.90;;;;;;5084145;28;21013;-81
2021/06/18 06:40:02;;;;;;;13.63;12.23;;;25.90;99.90;;;;;;5082205;28;20492;-83
2021/06/18 06:42:28;;;;;;;15.80;12.93;;;25.90;99.90;;;;;;5080574;28;20570;-83
2021/06/18 06:44:55;;;;;;;10.03;8.70;;;26.00;99.90;;;;;;5080066;28;20444;-81
2021/06/18 06:47:22;;;;;;;14.87;9.03;;;26.10;99.90;;;;;;5082429;28;20451;-82
2021/06/18 06:49:48;;;;;;;8.80;8.17;;;26.10;99.90;;;;;;5084957;28;20468;-82
2021/06/18 06:52:15;;;;;;;13.37;11.67;;;26.20;99.90;;;;;;5085338;28;20935;-83
2021/06/18 06:54:42;;;;;;;8.83;8.03;;;26.20;99.90;;;;;;5084184;28;20445;-79
2021/06/18 06:57:10;;;;;;;12.77;8.63;;;26.30;99.90;;;;;;5084516;28;20506;-82
2021/06/18 06:59:36;;;;;;;13.43;7.83;;;26.30;99.90;;;;;;5084233;28;20494;-81
2021/06/18 07:02:05;;;;;;;11.57;10.33;;;26.30;99.90;;;;;;5084684;28;20492;-82
2021/06/18 07:04:32;;;;;;;12.00;9.83;;;26.40;99.90;;;;;;5084020;28;20449;-81
2021/06/18 07:06:58;;;;;;;10.03;7.43;;;26.50;99.90;;;;;;5083432;28;20444;-81
2021/06/18 07:09:25;;;;;;;8.50;7.70;;;26.50;99.90;;;;;;5082710;28;20484;-81
2021/06/18 07:11:52;;;;;;;10.20;8.37;;;26.60;99.90;;;;;;5082400;28;20463;-82
2021/06/18 07:14:20;;;;;;;9.80;8.90;;;26.60;99.90;;;;;;5082812;28;20487;-81
2021/06/18 07:16:47;;;;;;;12.40;10.63;;;26.70;99.90;;;;;;5083063;28;20698;-81
2021/06/18 07:19:13;;;;;;;10.90;6.97;;;26.80;99.90;;;;;;5082542;28;20515;-81
2021/06/18 07:21:41;;;;;;;6.97;6.30;;;26.80;99.90;;;;;;5082341;28;20481;-82
2021/06/18 07:24:08;;;;;;;7.93;7.23;;;26.80;99.90;;;;;;5086546;28;20449;-81
2021/06/18 07:26:35;;;;;;;7.23;6.67;;;26.90;99.90;;;;;;5088309;28;20449;-82
2021/06/18 07:29:01;;;;;;;14.30;7.67;;;27.00;99.90;;;;;;5085233;28;20458;-82
2021/06/18 07:31:29;;;;;;;11.37;10.10;;;27.10;99.90;;;;;;5086506;28;20441;-81
2021/06/18 07:33:56;;;;;;;6.90;6.40;;;27.10;99.90;;;;;;5087775;28;20458;-82
2021/06/18 07:36:23;;;;;;;7.53;6.83;;;27.20;99.90;;;;;;5084509;28;20518;-81
2021/06/18 07:38:50;;;;;;;7.77;7.00;;;27.20;99.90;;;;;;5088549;28;20421;-81
2021/06/18 07:41:16;;;;;;;10.23;7.10;;;27.30;99.90;;;;;;5099455;28;20503;-82
2021/06/18 07:43:43;;;;;;;11.57;9.57;;;27.40;99.90;;;;;;5099672;28;20796;-82
2021/06/18 07:46:10;;;;;;;8.20;7.40;;;27.40;99.90;;;;;;5099657;28;20429;-81
2021/06/18 07:48:38;;;;;;;7.60;6.93;;;27.30;99.90;;;;;;5098099;28;20437;-82
2021/06/18 07:51:05;;;;;;;8.70;6.53;;;27.50;99.90;;;;;;5082554;28;20437;-83
2021/06/18 07:53:32;;;;;;;9.77;7.23;;;27.60;99.90;;;;;;5080879;28;20450;-83
2021/06/18 07:55:58;;;;;;;7.80;5.67;;;27.70;99.90;;;;;;5089800;28;20530;-83
2021/06/18 07:58:28;;;;;;;10.63;9.47;;;27.70;99.90;;;;;;5089941;28;20484;-83
2021/06/18 08:00:55;;;;;;;10.80;8.30;;;27.80;99.90;;;;;;5083808;28;20471;-82
2021/06/18 08:03:22;;;;;;;8.00;7.30;;;27.40;99.90;;;;;;5085259;28;20452;-83
2021/06/18 08:05:50;;;;;;;10.33;6.50;;;27.90;99.90;;;;;;5083159;28;20452;-82
2021/06/18 08:08:16;;;;;;;6.63;6.10;;;28.00;99.90;;;;;;5082074;28;20445;-82
2021/06/18 08:10:43;;;;;;;10.43;8.60;;;28.00;99.90;;;;;;5080677;28;20479;-82
2021/06/18 08:13:10;;;;;;;11.77;9.17;;;28.10;99.90;;;;;;5079972;28;20451;-82
2021/06/18 08:15:36;;;;;;;8.40;7.67;;;28.10;99.90;;;;;;5080643;28;20883;-82
2021/06/18 08:18:03;;;;;;;6.13;5.60;;;28.20;99.90;;;;;;5080898;28;20454;-82
2021/06/18 08:20:30;;;;;;;6.57;5.90;;;28.30;99.90;;;;;;5079776;28;20888;-83
2021/06/18 08:22:58;;;;;;;6.10;4.83;;;28.30;99.90;;;;;;5081818;28;20846;-83
2021/06/18 08:25:25;;;;;;;5.50;5.10;;;28.40;99.90;;;;;;5083223;28;20507;-83
2021/06/18 08:27:51;;;;;;;8.43;5.97;;;28.40;99.90;;;;;;5086179;28;20470;-83
2021/06/18 08:30:20;;;;;;;7.40;6.80;;;28.50;99.90;;;;;;5088436;28;20473;-83
2021/06/18 08:32:46;;;;;;;9.43;5.40;;;28.50;99.90;;;;;;5087434;28;20539;-82
2021/06/18 08:35:13;;;;;;;6.07;4.80;;;28.50;99.90;;;;;;5086281;28;20452;-82
2021/06/18 08:37:39;;;;;;;7.17;5.73;;;28.50;99.90;;;;;;5086281;28;20451;-83
2021/06/18 08:40:09;;;;;;;7.43;5.10;;;28.60;99.90;;;;;;5086079;28;20533;-82
2021/06/18 08:42:37;;;;;;;5.83;5.43;;;28.60;99.90;;;;;;5082943;28;20515;-82
2021/06/18 08:45:04;;;;;;;6.40;5.23;;;28.60;99.60;;;;;;5088575;28;20462;-82
2021/06/18 08:47:31;;;;;;;7.87;7.17;;;28.60;99.90;;;;;;5091937;28;20445;-81
2021/06/18 08:49:58;;;;;;;7.93;7.10;;;28.60;99.90;;;;;;5087122;28;20472;-82
2021/06/18 08:52:24;;;;;;;7.67;6.90;;;28.80;99.90;;;;;;5088993;28;20444;-81
2021/06/18 08:54:54;;;;;;;6.97;6.30;;;28.80;99.90;;;;;;5092685;28;20447;-81
2021/06/18 08:57:23;;;;;;;7.60;6.57;;;28.80;99.90;;;;;;5091688;28;20452;-81
2021/06/18 08:59:51;;;;;;;7.53;6.53;;;28.90;99.90;;;;;;5092313;28;20468;-81
2021/06/18 09:02:18;;;;;;;8.40;6.90;;;28.90;99.50;;;;;;5092216;28;21034;-80
2021/06/18 09:05:04;;;;;;;6.07;4.90;;;29.00;96.90;;;;;;5091544;28;20460;-81
2021/06/18 09:07:52;;;;;;;5.80;5.23;;;29.00;98.70;;;;;;5091809;28;20432;-81
2021/06/18 09:10:26;;;;;;;7.67;5.93;;;29.10;97.60;;;;;;5089459;28;20476;-80
2021/06/18 09:13:15;;;;;;;6.33;5.73;;;29.20;97.40;;;;;;5090706;28;20485;-80
2021/06/18 09:15:45;;;;;;;6.97;6.27;;;29.20;97.40;;;;;;5090197;28;20428;-81
2021/06/18 09:18:32;;;;;;;8.60;5.70;;;29.20;97.30;;;;;;5089294;28;20445;-81
2021/06/18 09:21:15;;;;;;;8.80;4.80;;;29.20;97.80;;;;;;5088403;28;20503;-82
2021/06/18 09:23:43;;;;;;;9.63;6.03;;;29.30;97.50;;;;;;5087078;28;20496;-81
2021/06/18 09:26:23;;;;;;;5.43;4.93;;;29.30;95.00;;;;;;5084423;28;20441;-82
2021/06/18 09:29:09;;;;;;;4.90;4.50;;;29.00;92.00;;;;;;5083288;28;20802;-81
2021/06/18 09:31:39;;;;;;;7.33;5.60;;;29.40;94.90;;;;;;5080860;28;20429;-81
2021/06/18 09:34:07;;;;;;;7.97;5.17;;;29.50;94.20;;;;;;5080954;28;20456;-81
2021/06/18 09:36:35;;;;;;;7.30;6.70;;;29.40;94.90;;;;;;5081422;28;20459;-81
2021/06/18 09:39:06;;;;;;;5.93;5.23;;;29.50;95.10;;;;;;5080216;28;20465;-81
2021/06/18 09:41:39;;;;;;;6.73;5.80;;;29.50;95.80;;;;;;5081077;28;20874;-82
2021/06/18 09:44:11;;;;;;;10.63;5.40;;;29.50;94.10;;;;;;5081072;28;20860;-82
2021/06/18 09:46:42;;;;;;;7.30;5.90;;;29.60;94.10;;;;;;5085352;28;20503;-81
2021/06/18 09:49:13;;;;;;;6.50;5.97;;;29.70;95.40;;;;;;5090643;28;20469;-81
2021/06/18 09:52:01;;;;;;;7.30;5.47;;;29.70;92.20;;;;;;5086152;28;20436;-82
2021/06/18 09:54:32;;;;;;;7.93;5.07;;;29.80;94.20;;;;;;5077644;28;20444;-82
2021/06/18 09:57:10;;;;;;;11.67;5.67;;;29.90;92.00;;;;;;5083548;28;20429;-82
2021/06/18 09:59:57;;;;;;;5.80;5.30;;;29.90;94.20;;;;;;5083133;28;20958;-82
2021/06/18 10:02:40;;;;;;;7.50;5.90;;;29.90;93.00;;;;;;5081204;28;20898;-82
2021/06/18 10:05:09;;;;;;;8.83;6.47;;;30.00;93.40;;;;;;5081560;28;20437;-82
2021/06/18 10:07:36;;;;;;;7.10;5.87;;;30.00;92.80;;;;;;5081107;28;20429;-81
2021/06/18 10:10:05;;;;;;;6.33;5.73;;;30.10;92.50;;;;;;5109877;22;20507;-82
2021/06/18 10:12:32;;;;;;;8.20;7.50;;;30.10;92.80;;;;;;5094663;28;20421;-83
2021/06/18 10:15:06;;;;;;;8.23;7.07;;;30.20;93.00;;;;;;5095061;28;20501;-83
2021/06/18 10:17:33;;;;;;;7.00;6.27;;;30.20;92.90;;;;;;5088084;28;20432;-84
2021/06/18 10:20:00;;;;;;;6.50;5.90;;;30.20;92.50;;;;;;5081865;28;20506;-84
2021/06/18 10:22:28;;;;;;;5.93;5.43;;;30.30;92.20;;;;;;5084955;28;20602;-84
2021/06/18 10:24:59;;;;;;;5.77;5.13;;;30.30;90.40;;;;;;5085328;28;20451;-84
2021/06/18 10:27:31;;;;;;;6.57;5.87;;;30.30;90.90;;;;;;5090243;28;20430;-83
2021/06/18 10:30:19;;;;;;;5.80;5.40;;;30.30;90.30;;;;;;5090474;28;20554;-84
2021/06/18 10:32:46;;;;;;;6.00;5.60;;;30.30;90.40;;;;;;5084496;28;20445;-84
2021/06/18 10:35:41;;;;;;;7.43;6.07;;;30.40;91.40;;;;;;5098418;28;20420;-83
2021/06/18 10:38:14;;;;;;;8.77;6.50;;;30.40;91.10;;;;;;5090693;28;20802;-83
2021/06/18 10:40:45;;;;;;;6.53;4.77;;;30.50;85.30;;;;;;5081049;28;20471;-83
2021/06/18 10:43:14;;;;;;;6.07;5.57;;;30.60;90.00;;;;;;5080448;28;20545;-83
2021/06/18 10:46:10;;;;;;;5.50;5.00;;;30.60;88.00;;;;;;5079710;28;20445;-83
2021/06/18 10:49:09;;;;;;;5.60;4.93;;;30.60;86.60;;;;;;5079257;28;20433;-83
2021/06/18 10:51:43;;;;;;;5.10;4.70;;;30.60;80.60;;;;;;5080373;28;20449;-84
2021/06/18 10:54:13;;;;;;;6.73;5.87;;;30.60;88.20;;;;;;5079436;28;20899;-84
2021/06/18 10:57:02;;;;;;;7.13;6.13;;;30.70;84.10;;;;;;5079871;28;20491;-83
2021/06/18 10:59:34;;;;;;;5.07;4.60;;;30.80;86.20;;;;;;5079764;28;20853;-83
2021/06/18 11:02:03;;;;;;;8.30;4.70;;;30.90;86.00;;;;;;5079500;28;20488;-83
2021/06/18 11:04:41;;;;;;;6.00;5.07;;;30.90;85.60;;;;;;5080110;28;20446;-83
2021/06/18 11:07:22;;;;;;;5.60;5.00;;;30.90;87.20;;;;;;5080066;28;20926;-84
2021/06/18 11:09:49;;;;;;;9.57;6.10;;;30.90;85.70;;;;;;5079432;28;20986;-84
2021/06/18 11:12:39;;;;;;;10.20;5.00;;;30.90;83.30;;;;;;5078675;28;20915;-83
2021/06/18 11:15:09;;;;;;;6.83;6.17;;;30.90;84.10;;;;;;5079280;28;20436;-84
2021/06/18 11:17:40;;;;;;;9.27;5.37;;;31.00;83.70;;;;;;5078700;28;20449;-83
2021/06/18 11:20:08;;;;;;;5.60;5.20;;;31.00;80.30;;;;;;5079652;28;20503;-83
2021/06/18 11:22:39;;;;;;;4.77;4.37;;;31.10;81.80;;;;;;5081223;28;20476;-83
2021/06/18 11:25:27;;;;;;;5.87;5.33;;;31.10;81.20;;;;;;5083160;28;20429;-84
2021/06/18 11:27:54;;;;;;;5.63;5.23;;;31.20;81.30;;;;;;5082744;28;20445;-84
2021/06/18 11:30:28;;;;;;;5.73;5.23;;;31.30;79.00;;;;;;5085000;28;20780;-84
2021/06/18 11:32:56;;;;;;;7.23;6.63;;;31.30;81.40;;;;;;5083919;28;20444;-85
2021/06/18 11:35:39;;;;;;;5.73;5.03;;;31.30;81.60;;;;;;5084017;28;20449;-83
2021/06/18 11:38:15;;;;;;;4.90;4.50;;;31.40;80.40;;;;;;5083921;28;20449;-83
2021/06/18 11:40:42;;;;;;;6.67;6.07;;;31.10;76.60;;;;;;5082743;28;20514;-83
2021/06/18 11:43:09;;;;;;;5.97;5.47;;;31.30;80.10;;;;;;5082573;28;20507;-83
2021/06/18 11:45:39;;;;;;;7.27;6.67;;;31.20;78.70;;;;;;5084593;28;20494;-83
2021/06/18 11:48:12;;;;;;;6.30;5.70;;;31.20;78.10;;;;;;5082744;28;20441;-83
2021/06/18 11:50:39;;;;;;;5.10;4.60;;;31.20;78.40;;;;;;5081747;28;20475;-83
2021/06/18 11:53:06;;;;;;;8.00;5.60;;;31.10;78.60;;;;;;5081245;28;20441;-84
2021/06/18 11:55:34;;;;;;;7.10;5.60;;;31.20;76.40;;;;;;5080730;28;20502;-84
2021/06/18 11:58:00;;;;;;;6.37;5.73;;;31.30;77.80;;;;;;5089927;28;20431;-84
2021/06/18 12:00:31;;;;;;;6.40;5.70;;;31.30;77.30;;;;;;5098849;28;20456;-83
2021/06/18 12:02:58;;;;;;;5.30;5.00;;;31.40;77.70;;;;;;5093433;28;20559;-83
2021/06/18 12:05:30;;;;;;;6.53;6.03;;;31.40;76.10;;;;;;5084759;28;20881;-83
2021/06/18 12:07:56;;;;;;;7.10;5.93;;;31.50;74.90;;;;;;5092096;28;20528;-82
2021/06/18 12:10:29;;;;;;;6.37;5.70;;;31.60;76.70;;;;;;5092288;28;20469;-82
2021/06/18 12:12:59;;;;;;;5.93;5.43;;;31.60;77.70;;;;;;5090910;28;20445;-83
2021/06/18 12:15:29;;;;;;;8.40;7.60;;;31.60;77.60;;;;;;5081074;28;20452;-84
2021/06/18 12:17:58;;;;;;;6.00;5.60;;;31.60;75.50;;;;;;5080202;28;21008;-83
2021/06/18 12:20:28;;;;;;;5.83;5.23;;;31.60;77.80;;;;;;5080722;28;21052;-83
2021/06/18 12:22:54;;;;;;;6.00;5.50;;;31.70;76.00;;;;;;5096490;28;20475;-84
2021/06/18 12:25:21;;;;;;;7.17;6.47;;;31.70;77.30;;;;;;5081073;28;20808;-83
2021/06/18 12:27:48;;;;;;;6.50;5.40;;;31.70;75.50;;;;;;5081886;28;20479;-84
2021/06/18 12:30:18;;;;;;;5.43;5.03;;;31.70;78.00;;;;;;5087202;28;20445;-83
2021/06/18 12:32:46;;;;;;;5.60;5.13;;;31.70;76.00;;;;;;5079517;28;20450;-83
2021/06/18 12:35:15;;;;;;;5.67;5.27;;;31.70;75.70;;;;;;5077747;28;20444;-83
2021/06/18 12:37:48;;;;;;;5.60;5.13;;;31.70;75.40;;;;;;5077079;28;20444;-83
2021/06/18 12:40:16;;;;;;;6.13;5.03;;;31.70;72.40;;;;;;5077304;28;20530;-82
2021/06/18 12:42:47;;;;;;;6.87;6.00;;;31.90;73.90;;;;;;5077967;28;21037;-82
2021/06/18 12:45:17;;;;;;;6.47;6.00;;;31.90;74.40;;;;;;5078099;28;20429;-83
2021/06/18 12:47:46;;;;;;;6.80;6.20;;;31.90;74.10;;;;;;5077795;28;20524;-82